CheckWX is a tool to help pilots better visualize weather data.  It is not intended as a substitute for an official pre-flight weather briefing.

10:34:35 UTC

KECP METAR
Northwest Florida Beaches International Airport
Panama City Beach, Florida, USA
Current

42 mins ago

KECP 120953Z AUTO 31005KT 10SM CLR 22/19 A2990 RMK AO2 SLP135 T02220194
Observed
Jul-12 @ 09:53 UTC
Wind
  • 310° at 5 KTS
Visibility
10 SM
Flight Rules
VFR
Cloud Levels
  • Clear skies
Temperature
22°C / 72°F
Dewpoint
19°C / 66°F
Humidity
83%
Altimeter
29.9" Hg
Pressure
1012.52 hPa
Previous

2 hours ago

KECP 120853Z AUTO 30003KT 10SM CLR 22/20 A2988 RMK AO2 SLP129 T02220200 55006
Observed
Jul-12 @ 08:53 UTC
Wind
  • 300° at 3 KTS
Visibility
10 SM
Flight Rules
VFR
Cloud Levels
  • Clear skies
Temperature
22°C / 72°F
Dewpoint
20°C / 68°F
Humidity
88%
Altimeter
29.88" Hg
Pressure
1011.82 hPa
Previous

3 hours ago

KECP 120753Z AUTO 30003KT 10SM CLR 22/20 A2988 RMK AO2 SLP129 T02220200
Observed
Jul-12 @ 07:53 UTC
Wind
  • 300° at 3 KTS
Visibility
10 SM
Flight Rules
VFR
Cloud Levels
  • Clear skies
Temperature
22°C / 72°F
Dewpoint
20°C / 68°F
Humidity
88%
Altimeter
29.88" Hg
Pressure
1011.82 hPa